createdAt,value
2022-07-25T00:03:43.918Z,17.00
2022-07-25T00:08:46.397Z,16.93
2022-07-25T00:13:52.025Z,16.81
2022-07-25T00:19:20.066Z,16.72
2022-07-25T00:24:22.461Z,16.68
2022-07-25T00:29:24.892Z,16.63
2022-07-25T00:34:40.146Z,16.57
2022-07-25T00:39:42.371Z,16.52
2022-07-25T00:44:44.767Z,16.47
2022-07-25T00:49:47.128Z,16.41
2022-07-25T00:54:49.624Z,16.35
2022-07-25T00:59:55.912Z,16.26
2022-07-25T01:04:58.954Z,16.17
2022-07-25T01:10:02.120Z,16.13
2022-07-25T01:15:05.037Z,16.10
2022-07-25T01:20:17.674Z,16.05
2022-07-25T01:25:21.929Z,16.03
2022-07-25T01:30:25.457Z,16.03
2022-07-25T01:35:27.872Z,16.03
2022-07-25T01:40:30.146Z,16.00
2022-07-25T01:45:35.604Z,15.96
2022-07-25T01:50:41.050Z,15.95
2022-07-25T01:55:46.018Z,15.91
2022-07-25T02:01:03.938Z,15.86
2022-07-25T02:06:29.064Z,15.80
2022-07-25T02:12:00.660Z,15.72
2022-07-25T02:18:08.052Z,15.62
2022-07-25T02:23:35.532Z,15.53
2022-07-25T02:29:40.994Z,15.43
2022-07-25T02:35:15.659Z,15.34
2022-07-25T02:40:25.607Z,15.31
2022-07-25T02:45:28.237Z,15.27
2022-07-25T02:50:36.669Z,15.26
2022-07-25T02:56:02.497Z,15.23
2022-07-25T03:01:05.106Z,15.19
2022-07-25T03:06:19.638Z,15.16
2022-07-25T03:11:27.344Z,15.14
2022-07-25T03:16:32.922Z,15.10
2022-07-25T03:21:58.446Z,15.07
2022-07-25T03:27:04.253Z,15.02
2022-07-25T03:32:28.004Z,14.97
2022-07-25T03:37:50.661Z,15.01
2022-07-25T03:43:18.123Z,15.30
2022-07-25T03:48:28.270Z,15.74
2022-07-25T03:54:24.009Z,16.15
2022-07-25T04:00:11.533Z,16.55
2022-07-25T04:05:14.031Z,16.85
2022-07-25T04:10:26.933Z,17.02
2022-07-25T04:15:39.391Z,17.08
2022-07-25T04:21:02.673Z,17.07
2022-07-25T04:26:33.813Z,16.96
2022-07-25T04:32:00.239Z,16.87
2022-07-25T04:37:23.118Z,16.81
2022-07-25T04:43:05.348Z,16.82
2022-07-25T04:48:12.747Z,16.88
2022-07-25T04:53:26.029Z,16.99
2022-07-25T04:58:50.506Z,17.10
2022-07-25T05:03:53.337Z,17.20
2022-07-25T05:09:07.170Z,17.31
2022-07-25T05:14:28.284Z,17.42
2022-07-25T05:20:00.124Z,17.52
2022-07-25T05:25:31.276Z,17.68
2022-07-25T05:30:40.167Z,17.84
2022-07-25T05:36:05.579Z,18.01
2022-07-25T05:41:15.037Z,18.24
2022-07-25T05:46:40.108Z,18.45
2022-07-25T05:51:55.920Z,18.64
2022-07-25T05:56:58.613Z,18.78
2022-07-25T06:02:02.592Z,18.87
2022-07-25T06:07:21.667Z,18.93
2022-07-25T06:12:24.519Z,19.07
2022-07-25T06:17:32.236Z,19.20
2022-07-25T06:22:34.842Z,19.34
2022-07-25T06:27:47.473Z,19.49
2022-07-25T06:33:01.740Z,19.69
2022-07-25T06:38:09.801Z,19.94
2022-07-25T06:43:15.226Z,20.16
2022-07-25T06:48:28.596Z,20.34
2022-07-25T06:53:39.570Z,20.51
2022-07-25T06:58:41.966Z,20.77
2022-07-25T07:03:44.541Z,20.98
2022-07-25T07:08:48.621Z,21.13
2022-07-25T07:13:51.474Z,21.29
2022-07-25T07:18:53.588Z,21.50
2022-07-25T07:23:59.974Z,21.67
2022-07-25T07:29:05.620Z,21.92
2022-07-25T07:34:17.400Z,22.09
2022-07-25T07:39:19.747Z,22.24
2022-07-25T07:44:32.948Z,22.51
2022-07-25T07:49:37.315Z,22.81
2022-07-25T07:54:59.502Z,23.15
2022-07-25T08:00:02.187Z,23.35
2022-07-25T08:05:22.181Z,23.51
2022-07-25T08:10:35.154Z,23.75
2022-07-25T08:16:01.194Z,23.92
2022-07-25T08:21:18.725Z,24.14
2022-07-25T08:26:31.524Z,24.36
2022-07-25T08:31:34.435Z,24.55
2022-07-25T08:36:37.173Z,24.69
2022-07-25T08:41:44.974Z,24.80
2022-07-25T08:47:11.949Z,25.00
2022-07-25T08:52:15.994Z,25.22
2022-07-25T08:57:18.333Z,25.44
2022-07-25T09:02:21.173Z,25.67
2022-07-25T09:07:43.828Z,25.87
2022-07-25T09:12:57.546Z,26.01
2022-07-25T09:18:06.291Z,26.16
2022-07-25T09:23:36.238Z,26.27
2022-07-25T09:28:55.800Z,26.36
2022-07-25T09:34:01.979Z,26.35
2022-07-25T09:39:06.835Z,26.38
2022-07-25T09:44:30.311Z,26.44
2022-07-25T09:49:52.548Z,26.56
2022-07-25T09:54:55.156Z,26.65
2022-07-25T10:00:00.471Z,26.75
2022-07-25T10:05:15.807Z,26.87
2022-07-25T10:10:28.655Z,26.96
2022-07-25T10:15:50.591Z,27.08
2022-07-25T10:20:56.257Z,27.24
2022-07-25T10:26:01.310Z,27.38
2022-07-25T10:31:03.747Z,27.50
2022-07-25T10:36:15.615Z,27.60
2022-07-25T10:41:17.907Z,27.77
2022-07-25T10:46:28.188Z,27.98
2022-07-25T10:51:41.346Z,28.16
2022-07-25T10:56:57.348Z,28.25
2022-07-25T11:02:00.647Z,28.34
2022-07-25T11:07:14.749Z,28.46
2022-07-25T11:12:20.226Z,28.62
2022-07-25T11:17:27.788Z,28.71
2022-07-25T11:22:32.233Z,28.78
2022-07-25T11:27:34.463Z,28.86
2022-07-25T11:32:57.801Z,28.95
2022-07-25T11:38:15.130Z,28.96
2022-07-25T11:43:21.670Z,29.03
2022-07-25T11:48:34.550Z,29.08
2022-07-25T11:53:55.167Z,29.10
2022-07-25T11:59:01.968Z,29.18
2022-07-25T12:04:18.644Z,29.08
2022-07-25T12:09:22.310Z,28.78
2022-07-25T12:14:24.432Z,28.51
2022-07-25T12:19:26.622Z,28.34
2022-07-25T12:24:28.672Z,28.29
2022-07-25T12:29:30.881Z,28.31
2022-07-25T12:34:33.261Z,28.44
2022-07-25T12:39:35.762Z,28.68
2022-07-25T12:44:37.844Z,28.90
2022-07-25T12:49:40.353Z,29.08
2022-07-25T12:54:58.034Z,29.31
2022-07-25T13:00:00.404Z,29.47
2022-07-25T13:05:03.916Z,29.48
2022-07-25T13:10:07.128Z,29.49
2022-07-25T13:15:09.866Z,29.53
2022-07-25T13:20:12.442Z,29.60
2022-07-25T13:25:14.954Z,29.71
2022-07-25T13:30:20.149Z,29.85
2022-07-25T13:35:31.526Z,30.06
2022-07-25T13:40:42.342Z,30.20
2022-07-25T13:45:57.609Z,30.21
2022-07-25T13:51:00.088Z,30.23
2022-07-25T13:56:02.494Z,30.28
2022-07-25T14:01:20.268Z,30.46
2022-07-25T14:06:29.447Z,30.60
2022-07-25T14:11:31.854Z,30.68
2022-07-25T14:16:44.912Z,30.73
2022-07-25T14:21:50.977Z,30.82
2022-07-25T14:26:55.197Z,30.86
2022-07-25T14:31:57.926Z,30.91
2022-07-25T14:37:00.763Z,30.96
2022-07-25T14:42:13.945Z,30.98
2022-07-25T14:47:41.751Z,31.00
2022-07-25T14:52:57.936Z,31.08
2022-07-25T14:58:02.723Z,31.17
2022-07-25T15:03:04.818Z,31.21
2022-07-25T15:08:07.175Z,31.29
2022-07-25T15:13:30.356Z,31.33
2022-07-25T15:18:42.545Z,31.40
2022-07-25T15:23:57.564Z,31.42
2022-07-25T15:29:00.546Z,31.39
2022-07-25T15:34:06.115Z,31.35
2022-07-25T15:39:09.442Z,31.30
2022-07-25T15:44:11.939Z,31.32
2022-07-25T15:49:15.671Z,31.36
2022-07-25T15:54:17.942Z,31.41
2022-07-25T15:59:20.140Z,31.45
2022-07-25T16:04:22.788Z,31.46
2022-07-25T16:09:25.787Z,31.49
2022-07-25T16:14:28.006Z,31.51
2022-07-25T16:19:30.435Z,31.53
2022-07-25T16:24:32.930Z,31.55
2022-07-25T16:29:35.227Z,31.53
2022-07-25T16:34:37.421Z,31.51
2022-07-25T16:39:40.452Z,31.47
2022-07-25T16:44:42.598Z,31.47
2022-07-25T16:49:45.085Z,31.41
2022-07-25T16:54:47.927Z,31.38
2022-07-25T17:00:01.068Z,31.34
2022-07-25T17:05:03.890Z,31.33
2022-07-25T17:10:07.179Z,31.28
2022-07-25T17:15:10.397Z,31.27
2022-07-25T17:20:16.215Z,31.26
2022-07-25T17:25:18.727Z,31.20
2022-07-25T17:30:21.380Z,31.19
2022-07-25T17:35:26.569Z,31.22
2022-07-25T17:40:29.124Z,31.17
2022-07-25T17:45:31.331Z,31.01
2022-07-25T17:50:34.024Z,30.70
2022-07-25T17:55:39.029Z,30.43
2022-07-25T18:00:42.190Z,30.12
2022-07-25T18:05:44.415Z,29.79
2022-07-25T18:10:46.745Z,29.53
2022-07-25T18:15:50.474Z,29.30
2022-07-25T18:20:53.028Z,29.06
2022-07-25T18:25:55.780Z,28.74
2022-07-25T18:31:05.962Z,28.46
2022-07-25T18:36:09.244Z,28.20
2022-07-25T18:41:28.785Z,27.96
2022-07-25T18:46:33.149Z,27.69
2022-07-25T18:51:35.818Z,27.43
2022-07-25T18:56:38.527Z,27.20
2022-07-25T19:01:40.744Z,26.97
2022-07-25T19:06:43.445Z,26.76
2022-07-25T19:11:48.062Z,26.58
2022-07-25T19:16:50.453Z,26.41
2022-07-25T19:21:52.784Z,26.21
2022-07-25T19:26:59.135Z,26.05
2022-07-25T19:32:01.232Z,25.89
2022-07-25T19:37:04.229Z,25.74
2022-07-25T19:42:08.879Z,25.57
2022-07-25T19:47:11.957Z,25.37
2022-07-25T19:52:14.804Z,25.17
2022-07-25T19:57:19.617Z,24.96
2022-07-25T20:02:36.617Z,24.81
2022-07-25T20:07:50.027Z,24.64
2022-07-25T20:12:52.215Z,24.51
2022-07-25T20:18:01.057Z,24.38
2022-07-25T20:23:04.168Z,24.26
2022-07-25T20:28:08.916Z,24.14
2022-07-25T20:33:14.159Z,24.00
2022-07-25T20:38:18.727Z,23.88
2022-07-25T20:43:24.699Z,23.80
2022-07-25T20:49:04.138Z,23.69
2022-07-25T20:54:15.986Z,23.56
2022-07-25T20:59:24.075Z,23.43
2022-07-25T21:04:26.733Z,23.29
2022-07-25T21:09:32.745Z,23.16
2022-07-25T21:14:48.580Z,23.07
2022-07-25T21:20:16.877Z,23.03
2022-07-25T21:25:25.994Z,23.00
2022-07-25T21:30:28.696Z,22.94
2022-07-25T21:35:53.188Z,22.86
2022-07-25T21:40:59.583Z,22.79
2022-07-25T21:46:05.128Z,22.75
2022-07-25T21:51:10.491Z,22.71
2022-07-25T21:56:36.073Z,22.63
2022-07-25T22:01:56.332Z,22.54
2022-07-25T22:06:59.377Z,22.44
2022-07-25T22:12:12.009Z,22.35
2022-07-25T22:17:49.270Z,22.26
2022-07-25T22:22:52.588Z,22.20
2022-07-25T22:27:55.490Z,22.12
2022-07-25T22:33:17.239Z,22.05
2022-07-25T22:38:44.390Z,21.98
2022-07-25T22:44:14.310Z,21.93
2022-07-25T22:49:25.186Z,21.88
2022-07-25T22:54:30.561Z,21.81
2022-07-25T22:59:32.963Z,21.76
2022-07-25T23:04:55.612Z,21.71
2022-07-25T23:10:04.254Z,21.66
2022-07-25T23:15:20.976Z,21.62
2022-07-25T23:20:57.136Z,21.60
2022-07-25T23:26:02.710Z,21.56
2022-07-25T23:31:05.263Z,21.55
2022-07-25T23:36:19.501Z,21.54
2022-07-25T23:41:22.686Z,21.53
2022-07-25T23:46:27.914Z,21.51
2022-07-25T23:51:32.797Z,21.48
2022-07-25T23:56:35.399Z,21.43
